Time;durP1;ratioP1;P1;durP2;ratioP2;P2;SDS_P1;SDS_P2;PMS_P1;PMS_P2;Temp;Humidity;BMP_temperature;BMP_pressure;BME280_temperature;BME280_humidity;BME280_pressure;Samples;Min_cycle;Max_cycle;Signal;HPM_P1;HPM_P2
2021/10/02 00:46:19;;;;;;;16.97;12.90;;;14.80;99.90;;;;;;6030765;23;20433;-88
2021/10/02 00:49:04;;;;;;;14.97;13.33;;;14.80;99.90;;;;;;6067802;23;20452;-88
2021/10/02 00:58:08;;;;;;;14.17;12.63;;;14.80;99.90;;;;;;5903739;23;20515;-88
2021/10/02 01:00:35;;;;;;;15.37;13.80;;;14.80;99.90;;;;;;6075152;23;20488;-88
2021/10/02 01:03:12;;;;;;;19.97;13.30;;;14.70;99.90;;;;;;6095742;23;20407;-88
2021/10/02 01:05:53;;;;;;;16.10;13.97;;;14.70;99.90;;;;;;6129671;23;20407;-88
2021/10/02 01:08:32;;;;;;;15.40;13.07;;;14.70;99.90;;;;;;6137171;23;20450;-87
2021/10/02 01:11:12;;;;;;;22.47;14.27;;;14.70;99.90;;;;;;6139423;23;20394;-87
2021/10/02 01:13:47;;;;;;;20.63;15.03;;;14.70;99.90;;;;;;6137577;23;20372;-87
2021/10/02 01:16:20;;;;;;;17.20;14.20;;;14.70;99.90;;;;;;6130419;23;20372;-89
2021/10/02 01:18:54;;;;;;;22.37;15.37;;;14.80;99.90;;;;;;6135109;23;20438;-88
2021/10/02 01:21:40;;;;;;;18.50;16.53;;;14.80;99.90;;;;;;6129136;23;20372;-88
2021/10/02 01:24:22;;;;;;;25.63;19.57;;;14.70;99.90;;;;;;6129129;23;20446;-88
2021/10/02 01:27:11;;;;;;;15.90;13.60;;;14.70;99.90;;;;;;6133207;23;20399;-87
2021/10/02 01:29:42;;;;;;;15.80;13.93;;;14.80;99.90;;;;;;6135170;23;20431;-88
2021/10/02 01:32:16;;;;;;;20.50;14.23;;;14.80;99.90;;;;;;6130902;23;21043;-88
2021/10/02 01:34:55;;;;;;;18.83;14.10;;;14.80;99.90;;;;;;6136270;23;20426;-88
2021/10/02 01:37:32;;;;;;;17.70;15.57;;;14.70;99.90;;;;;;6133675;23;20452;-88
2021/10/02 01:48:20;;;;;;;18.30;13.67;;;14.80;99.90;;;;;;6098946;23;20550;-88
2021/10/02 01:50:49;;;;;;;14.60;13.10;;;14.80;99.90;;;;;;6116147;23;20523;-87
2021/10/02 01:53:18;;;;;;;16.17;13.70;;;14.80;99.90;;;;;;6122845;23;20409;-87
2021/10/02 01:55:46;;;;;;;14.67;13.17;;;14.90;99.90;;;;;;6106295;23;20441;-87
2021/10/02 01:58:14;;;;;;;14.37;12.87;;;14.80;99.90;;;;;;6112533;23;20443;-88
2021/10/02 02:00:46;;;;;;;15.80;12.70;;;14.80;99.90;;;;;;6099849;23;20412;-88
2021/10/02 02:03:17;;;;;;;15.70;13.10;;;14.70;99.90;;;;;;6099589;23;20397;-88
2021/10/02 02:05:45;;;;;;;17.40;12.97;;;14.70;99.90;;;;;;6120909;23;20411;-86
2021/10/02 02:08:16;;;;;;;20.17;12.80;;;14.70;99.90;;;;;;6118262;23;20511;-86
2021/10/02 02:10:44;;;;;;;20.90;13.83;;;14.70;99.90;;;;;;6101104;23;20860;-87
2021/10/02 02:13:13;;;;;;;18.47;13.87;;;14.70;99.90;;;;;;6100092;23;20516;-87
2021/10/02 02:15:43;;;;;;;19.00;13.70;;;14.70;99.90;;;;;;6105309;23;20393;-87
2021/10/02 02:18:12;;;;;;;18.07;14.30;;;14.60;99.90;;;;;;6099440;23;20394;-88
2021/10/02 02:20:42;;;;;;;14.87;13.30;;;14.60;99.90;;;;;;6105492;23;20405;-88
2021/10/02 02:23:10;;;;;;;22.10;13.37;;;14.60;99.90;;;;;;6099534;23;20409;-88
2021/10/02 02:25:37;;;;;;;15.50;13.47;;;14.60;99.90;;;;;;6099160;23;20792;-88
2021/10/02 02:28:06;;;;;;;14.90;13.30;;;14.50;99.90;;;;;;6098761;23;21089;-88
2021/10/02 02:30:34;;;;;;;15.83;12.90;;;14.60;99.90;;;;;;6099404;23;20416;-88
2021/10/02 02:33:03;;;;;;;14.13;12.10;;;14.60;99.90;;;;;;6111508;23;20927;-86
2021/10/02 02:35:30;;;;;;;15.70;13.90;;;14.60;99.90;;;;;;6113693;23;20393;-88
2021/10/02 02:37:58;;;;;;;16.60;14.53;;;14.50;99.90;;;;;;6114048;23;20412;-87
2021/10/02 02:40:25;;;;;;;13.87;12.47;;;14.50;99.90;;;;;;6115039;23;21101;-88
2021/10/02 02:42:52;;;;;;;14.00;11.87;;;14.50;99.90;;;;;;6139891;23;20381;-87
2021/10/02 02:45:20;;;;;;;13.80;12.33;;;14.50;99.90;;;;;;6142355;23;20402;-88
2021/10/02 02:47:52;;;;;;;14.83;13.30;;;14.50;99.90;;;;;;6140228;23;20447;-88
2021/10/02 02:50:28;;;;;;;17.37;12.60;;;14.50;99.90;;;;;;6133835;23;20950;-87
2021/10/02 02:53:01;;;;;;;16.70;13.70;;;14.40;99.90;;;;;;6128791;23;20381;-88
2021/10/02 02:55:32;;;;;;;13.47;11.90;;;14.40;99.90;;;;;;6128469;23;20396;-88
2021/10/02 02:58:04;;;;;;;13.20;11.90;;;14.50;99.90;;;;;;6132137;23;20390;-86
2021/10/02 03:00:35;;;;;;;14.70;11.90;;;14.50;99.90;;;;;;6127921;23;20463;-88
2021/10/02 03:03:06;;;;;;;19.63;12.77;;;14.30;99.90;;;;;;6139386;23;20429;-87
2021/10/02 03:05:38;;;;;;;13.97;12.30;;;14.30;99.90;;;;;;6144889;23;20394;-88
2021/10/02 03:08:09;;;;;;;14.50;11.57;;;14.20;99.90;;;;;;6128429;23;20437;-88
2021/10/02 03:10:37;;;;;;;14.00;12.60;;;14.30;99.90;;;;;;6139290;23;20399;-88
2021/10/02 03:13:07;;;;;;;12.53;11.23;;;14.30;99.90;;;;;;6134963;23;20417;-88
2021/10/02 03:15:36;;;;;;;14.50;12.43;;;14.40;99.90;;;;;;6137001;23;20409;-88
2021/10/02 03:18:03;;;;;;;16.07;11.10;;;14.40;99.90;;;;;;6142480;23;20471;-88
2021/10/02 03:20:31;;;;;;;12.10;10.87;;;14.30;99.90;;;;;;6140858;23;20406;-87
2021/10/02 03:23:00;;;;;;;14.63;12.00;;;14.40;99.90;;;;;;6153646;23;20406;-86
2021/10/02 03:25:28;;;;;;;14.33;12.20;;;14.40;99.90;;;;;;6144906;23;20388;-87
2021/10/02 03:27:56;;;;;;;13.17;11.77;;;14.40;99.90;;;;;;6153868;23;20450;-87
2021/10/02 03:30:23;;;;;;;11.97;10.77;;;14.40;99.90;;;;;;6153926;23;20408;-85
2021/10/02 03:32:51;;;;;;;14.93;12.77;;;14.40;99.90;;;;;;6153924;23;20391;-87
2021/10/02 03:35:19;;;;;;;15.17;13.10;;;14.30;99.90;;;;;;6134964;23;20414;-88
2021/10/02 03:37:47;;;;;;;12.27;11.07;;;14.20;99.90;;;;;;6138900;23;20394;-86
2021/10/02 03:40:15;;;;;;;11.90;10.40;;;14.30;99.90;;;;;;6153849;23;20443;-86
2021/10/02 03:42:46;;;;;;;13.23;11.23;;;14.30;99.90;;;;;;6151541;23;20428;-87
2021/10/02 03:45:13;;;;;;;15.03;12.87;;;14.30;99.90;;;;;;6140431;23;20415;-87
2021/10/02 03:47:40;;;;;;;18.37;12.60;;;14.20;99.90;;;;;;6138707;23;20404;-87
2021/10/02 03:50:08;;;;;;;17.70;13.20;;;14.20;99.90;;;;;;6135392;23;20471;-87
2021/10/02 03:52:35;;;;;;;12.60;11.30;;;14.20;99.90;;;;;;6134471;23;20416;-86
2021/10/02 03:55:03;;;;;;;15.40;12.40;;;14.20;99.90;;;;;;6132446;23;20404;-88
2021/10/02 03:57:31;;;;;;;13.07;11.70;;;14.10;99.90;;;;;;6134342;23;20435;-88
2021/10/02 03:59:58;;;;;;;14.00;12.13;;;14.10;99.90;;;;;;6131873;23;20432;-88
2021/10/02 04:02:25;;;;;;;12.40;11.10;;;14.10;99.90;;;;;;6142797;23;20466;-86
2021/10/02 04:04:52;;;;;;;16.00;12.57;;;14.20;99.90;;;;;;6149595;23;20400;-88
2021/10/02 04:07:18;;;;;;;16.33;12.87;;;14.20;99.90;;;;;;6152399;23;20472;-86
2021/10/02 04:09:45;;;;;;;13.20;11.60;;;14.20;99.90;;;;;;6146355;23;20462;-87
2021/10/02 04:12:12;;;;;;;12.83;11.43;;;14.20;99.90;;;;;;6130145;23;20417;-87
2021/10/02 04:14:40;;;;;;;14.37;12.90;;;14.20;99.90;;;;;;6143781;23;20413;-88
2021/10/02 04:17:08;;;;;;;14.63;12.47;;;14.20;99.90;;;;;;6129685;23;20486;-86
2021/10/02 04:19:35;;;;;;;12.70;10.83;;;14.10;99.90;;;;;;6128430;23;20432;-88
2021/10/02 04:22:02;;;;;;;13.67;10.87;;;14.10;99.90;;;;;;6128617;23;20955;-88
2021/10/02 04:24:28;;;;;;;14.03;10.80;;;14.00;99.90;;;;;;6128853;23;20389;-88
2021/10/02 04:26:58;;;;;;;13.07;11.70;;;14.00;99.90;;;;;;6127250;23;20453;-88
2021/10/02 04:29:25;;;;;;;13.40;10.80;;;13.90;99.90;;;;;;6126659;23;20491;-88
2021/10/02 04:31:53;;;;;;;15.10;12.43;;;13.80;99.90;;;;;;6144708;23;20409;-86
2021/10/02 04:34:20;;;;;;;12.93;11.57;;;13.90;99.90;;;;;;6150159;23;20420;-87
2021/10/02 04:36:47;;;;;;;13.30;11.03;;;14.00;99.90;;;;;;6127095;23;20486;-88
2021/10/02 04:39:14;;;;;;;13.13;11.90;;;14.00;99.90;;;;;;6139178;23;20429;-87
2021/10/02 04:41:41;;;;;;;11.10;10.00;;;14.00;99.90;;;;;;6139178;23;20423;-87
2021/10/02 04:44:07;;;;;;;17.63;12.53;;;13.90;99.90;;;;;;6130735;23;20445;-89
2021/10/02 04:46:35;;;;;;;11.70;9.93;;;13.90;99.90;;;;;;6131700;23;20423;-88
2021/10/02 04:49:03;;;;;;;12.67;11.00;;;14.00;99.90;;;;;;6137248;23;20453;-89
2021/10/02 04:51:30;;;;;;;12.73;11.43;;;14.00;99.90;;;;;;6128562;23;20428;-89
2021/10/02 04:53:56;;;;;;;12.20;9.60;;;14.00;99.90;;;;;;6128942;23;20404;-88
2021/10/02 04:56:23;;;;;;;11.20;9.80;;;14.10;99.90;;;;;;6127517;23;20779;-88
2021/10/02 04:58:50;;;;;;;14.90;11.03;;;14.10;99.90;;;;;;6121483;23;20455;-85
2021/10/02 05:01:17;;;;;;;13.53;11.10;;;14.10;99.90;;;;;;6128730;23;20423;-84
2021/10/02 05:03:43;;;;;;;14.40;10.90;;;14.10;99.90;;;;;;6128799;23;20406;-85
2021/10/02 05:06:12;;;;;;;11.40;10.30;;;14.10;99.90;;;;;;6134557;23;20425;-84
2021/10/02 05:08:38;;;;;;;10.87;9.77;;;14.10;99.90;;;;;;6129130;23;20456;-83
2021/10/02 05:11:06;;;;;;;12.70;10.63;;;14.10;99.90;;;;;;6131191;23;20432;-82
2021/10/02 05:13:34;;;;;;;14.63;9.93;;;14.00;99.90;;;;;;6131305;23;20422;-83
2021/10/02 05:16:01;;;;;;;11.97;10.60;;;14.00;99.90;;;;;;6131429;23;20406;-82
2021/10/02 05:18:27;;;;;;;16.83;12.20;;;14.10;99.90;;;;;;6133773;23;20489;-81
2021/10/02 05:20:54;;;;;;;20.80;12.67;;;14.10;99.90;;;;;;6133622;23;20497;-81
2021/10/02 05:23:22;;;;;;;13.10;10.60;;;14.10;99.90;;;;;;6131032;23;20426;-83
2021/10/02 05:25:49;;;;;;;14.30;11.10;;;14.00;99.90;;;;;;6138256;23;20413;-83
2021/10/02 05:28:16;;;;;;;17.20;11.70;;;14.00;99.90;;;;;;6138583;23;20431;-83
2021/10/02 05:30:43;;;;;;;17.43;11.37;;;13.90;99.90;;;;;;6141279;23;20425;-84
2021/10/02 05:33:09;;;;;;;13.90;12.50;;;13.90;99.90;;;;;;6134309;23;20404;-83
2021/10/02 05:35:36;;;;;;;14.77;11.67;;;14.00;99.90;;;;;;6133393;23;20425;-84
2021/10/02 05:38:03;;;;;;;14.13;10.87;;;13.90;99.90;;;;;;6132508;23;20506;-83
2021/10/02 05:40:31;;;;;;;22.33;11.83;;;13.90;99.90;;;;;;6138301;23;20406;-84
2021/10/02 05:42:59;;;;;;;19.10;12.63;;;13.90;99.90;;;;;;6138914;23;20413;-82
2021/10/02 05:45:26;;;;;;;16.73;12.37;;;14.00;99.90;;;;;;6144423;23;20411;-83
2021/10/02 05:47:53;;;;;;;13.03;10.70;;;14.00;99.90;;;;;;6138509;23;20429;-84
2021/10/02 05:50:20;;;;;;;14.77;12.97;;;14.10;99.90;;;;;;6136411;23;20446;-83
2021/10/02 05:52:47;;;;;;;12.40;11.20;;;14.20;99.90;;;;;;6146329;23;20418;-83
2021/10/02 05:55:14;;;;;;;13.53;11.93;;;14.30;99.90;;;;;;6138540;23;20408;-84
2021/10/02 05:57:42;;;;;;;12.37;11.07;;;14.40;99.90;;;;;;6140271;23;20443;-83
2021/10/02 06:00:10;;;;;;;12.63;11.43;;;14.40;99.90;;;;;;6138893;23;20382;-84
2021/10/02 06:02:37;;;;;;;12.03;10.70;;;14.50;99.90;;;;;;6133896;23;20443;-84
2021/10/02 06:05:04;;;;;;;11.33;10.27;;;14.50;99.90;;;;;;6134690;23;20434;-85
2021/10/02 06:07:31;;;;;;;12.53;11.40;;;14.60;99.90;;;;;;6134411;23;20464;-84
2021/10/02 06:09:58;;;;;;;13.27;11.80;;;14.60;99.90;;;;;;6134926;23;20451;-84
2021/10/02 06:12:24;;;;;;;12.40;11.10;;;14.70;99.90;;;;;;6133184;23;20410;-84
2021/10/02 06:14:52;;;;;;;11.80;10.60;;;14.70;99.90;;;;;;6133235;23;20418;-84
2021/10/02 06:17:19;;;;;;;13.13;10.50;;;14.70;99.90;;;;;;6134659;23;20413;-84
2021/10/02 06:19:46;;;;;;;11.57;10.20;;;14.70;99.90;;;;;;6134254;23;20406;-82
2021/10/02 06:22:13;;;;;;;12.57;11.37;;;14.70;99.90;;;;;;6133097;23;20415;-84
2021/10/02 06:24:40;;;;;;;13.00;11.07;;;14.60;99.90;;;;;;6132873;23;20404;-85
2021/10/02 06:27:08;;;;;;;14.40;11.63;;;14.60;99.90;;;;;;6134320;23;20415;-83
2021/10/02 06:29:35;;;;;;;12.80;11.60;;;14.60;99.90;;;;;;6139173;23;20486;-83
2021/10/02 06:32:04;;;;;;;11.90;10.80;;;14.60;99.90;;;;;;6135427;23;20484;-84
2021/10/02 06:34:30;;;;;;;15.50;11.40;;;14.60;99.90;;;;;;6139909;23;20444;-81
2021/10/02 06:36:57;;;;;;;11.67;10.50;;;14.60;99.90;;;;;;6153556;23;20465;-83
2021/10/02 06:39:24;;;;;;;11.73;10.53;;;14.60;99.90;;;;;;6151064;23;20428;-83
2021/10/02 06:41:51;;;;;;;13.90;12.43;;;14.70;99.90;;;;;;6151092;23;20489;-84
2021/10/02 06:44:17;;;;;;;13.43;12.07;;;14.70;99.90;;;;;;6145579;23;20814;-83
2021/10/02 06:46:44;;;;;;;12.13;10.90;;;14.70;99.90;;;;;;6141345;23;20467;-83
2021/10/02 06:49:12;;;;;;;11.80;10.60;;;14.80;99.90;;;;;;6149250;23;20479;-83
2021/10/02 06:51:39;;;;;;;12.90;11.47;;;14.90;99.90;;;;;;6143706;23;20438;-84
2021/10/02 06:54:05;;;;;;;17.60;14.13;;;14.90;99.90;;;;;;6152917;23;20432;-82
2021/10/02 06:56:32;;;;;;;14.43;12.87;;;15.00;99.90;;;;;;6145953;23;20479;-84
2021/10/02 06:58:59;;;;;;;11.87;10.67;;;15.10;99.90;;;;;;6149971;23;20450;-81
2021/10/02 07:01:25;;;;;;;11.53;10.17;;;15.10;99.90;;;;;;6140625;23;20495;-83
2021/10/02 07:03:52;;;;;;;13.53;11.27;;;15.10;99.90;;;;;;6143055;23;20400;-83
2021/10/02 07:06:20;;;;;;;13.50;11.03;;;15.20;99.90;;;;;;6136967;23;20399;-83
2021/10/02 07:08:47;;;;;;;12.20;10.97;;;15.30;99.90;;;;;;6131870;23;20740;-83
2021/10/02 07:11:14;;;;;;;11.33;10.23;;;15.40;99.90;;;;;;6133213;23;20412;-82
2021/10/02 07:13:40;;;;;;;11.50;10.33;;;15.50;99.90;;;;;;6133469;23;20419;-85
2021/10/02 07:16:07;;;;;;;11.60;10.50;;;15.60;99.90;;;;;;6134786;23;20407;-84
2021/10/02 07:18:34;;;;;;;11.77;10.07;;;15.70;99.90;;;;;;6133746;23;20427;-83
2021/10/02 07:21:00;;;;;;;11.73;10.57;;;15.80;99.90;;;;;;6133992;23;20423;-84
2021/10/02 07:23:32;;;;;;;11.57;10.17;;;15.90;99.90;;;;;;6133029;23;20411;-84
2021/10/02 07:25:59;;;;;;;11.13;9.93;;;16.00;99.90;;;;;;6141389;23;20485;-84
2021/10/02 07:28:27;;;;;;;10.47;9.47;;;16.00;99.90;;;;;;6142869;23;20435;-84
2021/10/02 07:30:54;;;;;;;10.40;9.33;;;16.00;99.90;;;;;;6135779;23;20468;-83
2021/10/02 07:33:20;;;;;;;12.67;10.57;;;16.00;99.90;;;;;;6134439;23;20914;-82
2021/10/02 07:35:47;;;;;;;13.00;10.03;;;16.10;99.90;;;;;;6134331;23;20412;-84
2021/10/02 07:38:14;;;;;;;10.80;9.70;;;16.10;99.90;;;;;;6135537;23;20432;-85
2021/10/02 07:40:42;;;;;;;11.53;10.43;;;16.00;99.90;;;;;;6134761;23;20436;-83
2021/10/02 07:43:12;;;;;;;11.97;10.87;;;16.00;99.90;;;;;;6133409;23;20408;-83
2021/10/02 07:45:41;;;;;;;14.93;11.47;;;15.90;99.90;;;;;;6134149;23;20388;-85
2021/10/02 07:48:10;;;;;;;10.57;9.57;;;15.90;99.90;;;;;;6133463;23;20436;-82
2021/10/02 07:50:38;;;;;;;10.80;9.70;;;16.00;99.90;;;;;;6134138;23;20451;-88
2021/10/02 07:53:05;;;;;;;11.50;10.30;;;16.10;99.90;;;;;;6134936;23;20408;-84
2021/10/02 07:55:35;;;;;;;12.43;11.17;;;16.20;99.90;;;;;;6135159;23;20486;-88
2021/10/02 07:58:03;;;;;;;10.97;9.83;;;16.40;99.90;;;;;;6137769;23;20442;-83
2021/10/02 08:00:30;;;;;;;9.40;8.20;;;16.60;99.90;;;;;;6130332;23;20407;-84
2021/10/02 08:02:57;;;;;;;14.93;9.60;;;16.70;99.90;;;;;;6129527;23;20415;-83
2021/10/02 08:05:24;;;;;;;13.37;9.27;;;16.70;99.90;;;;;;6129165;23;20407;-83
2021/10/02 08:07:52;;;;;;;9.70;8.80;;;16.70;99.90;;;;;;6130292;23;20455;-83
2021/10/02 08:10:25;;;;;;;10.43;8.97;;;16.80;99.90;;;;;;6130386;23;20449;-83
2021/10/02 08:12:52;;;;;;;10.87;9.47;;;17.00;99.90;;;;;;6132205;23;20487;-86
2021/10/02 08:15:21;;;;;;;10.10;9.10;;;17.10;99.90;;;;;;6128492;23;20472;-85
2021/10/02 08:17:49;;;;;;;8.60;7.80;;;17.20;99.90;;;;;;6134850;23;20459;-83
2021/10/02 08:20:18;;;;;;;10.70;9.63;;;17.30;99.90;;;;;;6147438;23;20958;-82
2021/10/02 08:22:47;;;;;;;10.20;7.83;;;17.70;99.90;;;;;;6148512;23;20398;-82
2021/10/02 08:25:15;;;;;;;10.53;9.00;;;18.60;99.90;;;;;;6145456;23;20415;-86
2021/10/02 08:27:45;;;;;;;9.70;8.47;;;19.50;99.90;;;;;;6141606;23;20424;-85
2021/10/02 08:30:14;;;;;;;11.87;8.60;;;20.40;99.90;;;;;;6151971;23;20461;-88
2021/10/02 08:32:42;;;;;;;9.73;8.03;;;20.50;98.00;;;;;;6150008;23;20403;-83
2021/10/02 08:35:10;;;;;;;8.20;7.40;;;20.40;97.70;;;;;;6148148;23;20411;-84
2021/10/02 08:37:37;;;;;;;10.20;8.40;;;20.00;97.30;;;;;;6141529;23;20444;-84
2021/10/02 08:40:06;;;;;;;8.37;7.13;;;19.70;97.60;;;;;;6137585;23;20418;-83
2021/10/02 08:42:36;;;;;;;8.10;7.30;;;19.60;97.80;;;;;;6141819;23;20756;-84
2021/10/02 08:45:04;;;;;;;7.97;6.70;;;19.40;97.90;;;;;;6145622;23;20370;-85
2021/10/02 08:47:35;;;;;;;7.90;6.60;;;19.60;98.00;;;;;;6150490;23;20509;-86
2021/10/02 08:50:05;;;;;;;7.10;6.23;;;19.80;97.20;;;;;;6148494;23;20432;-82
2021/10/02 08:52:32;;;;;;;10.70;6.80;;;20.10;96.20;;;;;;6138867;23;20401;-83
2021/10/02 08:55:00;;;;;;;7.03;6.43;;;20.20;95.80;;;;;;6137516;23;20437;-82
2021/10/02 08:57:27;;;;;;;6.93;6.23;;;20.10;95.70;;;;;;6140586;23;20417;-82
2021/10/02 08:59:55;;;;;;;8.67;6.60;;;20.50;95.10;;;;;;6141693;23;20379;-81
2021/10/02 09:02:25;;;;;;;8.33;7.17;;;21.70;93.90;;;;;;6137850;23;20758;-82
2021/10/02 09:04:53;;;;;;;7.03;6.30;;;23.20;91.40;;;;;;6145102;23;20440;-83
2021/10/02 09:07:23;;;;;;;6.43;5.60;;;23.80;87.70;;;;;;6140864;23;20410;-83
2021/10/02 09:09:52;;;;;;;7.57;6.30;;;24.20;85.30;;;;;;6145171;23;20431;-82
2021/10/02 09:12:21;;;;;;;6.43;5.70;;;24.50;81.50;;;;;;6139982;23;20414;-83
2021/10/02 09:14:48;;;;;;;6.33;5.80;;;24.80;79.20;;;;;;6141615;23;20406;-83
2021/10/02 09:17:15;;;;;;;6.17;4.83;;;25.90;76.00;;;;;;6150568;23;20411;-84
2021/10/02 09:19:41;;;;;;;6.67;6.07;;;27.40;71.80;;;;;;6139089;23;20422;-84
2021/10/02 09:22:10;;;;;;;5.73;5.23;;;28.20;65.80;;;;;;6149901;23;20415;-84
2021/10/02 09:24:42;;;;;;;4.93;4.40;;;28.50;62.70;;;;;;6134108;23;20772;-84
2021/10/02 09:27:14;;;;;;;7.67;4.80;;;29.50;59.40;;;;;;6134707;23;20396;-84
2021/10/02 09:29:43;;;;;;;4.90;4.50;;;29.60;59.10;;;;;;6135809;23;20454;-83
2021/10/02 09:32:11;;;;;;;5.40;4.40;;;29.90;55.90;;;;;;6141728;23;20435;-84
2021/10/02 09:34:47;;;;;;;4.50;4.10;;;31.10;54.10;;;;;;6140670;23;20423;-84
2021/10/02 09:37:23;;;;;;;4.70;4.07;;;31.10;51.40;;;;;;6136605;23;20388;-84
2021/10/02 09:39:55;;;;;;;4.60;4.20;;;31.50;51.00;;;;;;6133131;23;20458;-83
2021/10/02 09:42:33;;;;;;;4.73;4.33;;;31.80;50.10;;;;;;6133806;23;20409;-84
2021/10/02 09:45:03;;;;;;;5.17;4.23;;;32.20;48.80;;;;;;6132549;23;20406;-84
2021/10/02 09:47:30;;;;;;;4.17;3.87;;;32.70;47.80;;;;;;6130570;23;20511;-83
2021/10/02 09:49:57;;;;;;;3.93;3.53;;;32.90;45.80;;;;;;6130289;23;20440;-81
2021/10/02 09:52:33;;;;;;;6.07;4.70;;;32.80;46.50;;;;;;6130645;23;20470;-82
2021/10/02 09:55:16;;;;;;;3.97;3.60;;;33.40;45.70;;;;;;6128110;23;20392;-84
2021/10/02 09:57:44;;;;;;;4.57;4.00;;;32.80;44.60;;;;;;6130069;23;20946;-84
2021/10/02 10:00:13;;;;;;;4.50;3.83;;;33.10;45.20;;;;;;6131645;23;20460;-83
2021/10/02 10:02:42;;;;;;;3.97;3.67;;;33.00;43.90;;;;;;6133460;23;20403;-83
2021/10/02 10:05:10;;;;;;;7.37;3.80;;;32.80;43.40;;;;;;6130578;23;20408;-83
2021/10/02 10:07:38;;;;;;;5.47;4.10;;;32.20;44.60;;;;;;6136971;23;20847;-80
2021/10/02 10:10:09;;;;;;;5.70;3.90;;;32.20;45.40;;;;;;6136598;23;20981;-81
2021/10/02 10:12:39;;;;;;;4.53;3.80;;;32.50;45.50;;;;;;6135580;23;20399;-80
2021/10/02 10:15:08;;;;;;;5.33;4.20;;;32.50;44.30;;;;;;6134524;23;20400;-81
2021/10/02 10:17:35;;;;;;;4.10;3.70;;;32.80;43.90;;;;;;6134747;23;20462;-81
2021/10/02 10:20:09;;;;;;;3.97;3.67;;;33.00;43.60;;;;;;6143591;23;20400;-80
2021/10/02 10:22:37;;;;;;;4.40;3.30;;;33.60;43.70;;;;;;6149216;23;20396;-80
2021/10/02 10:25:08;;;;;;;4.03;3.70;;;34.90;41.90;;;;;;6136224;23;20411;-81
2021/10/02 10:27:39;;;;;;;14.83;4.57;;;33.90;40.20;;;;;;6135979;23;20400;-81
2021/10/02 10:30:15;;;;;;;3.37;2.93;;;34.50;40.80;;;;;;6134826;23;20439;-82
2021/10/02 10:33:00;;;;;;;3.90;3.57;;;34.10;40.60;;;;;;6132744;23;20470;-80
2021/10/02 10:35:29;;;;;;;5.63;3.37;;;32.90;41.20;;;;;;6131536;23;20392;-80
2021/10/02 10:37:56;;;;;;;4.40;4.00;;;33.30;41.10;;;;;;6129851;23;20431;-81
2021/10/02 10:40:24;;;;;;;4.30;3.47;;;32.00;41.00;;;;;;6130448;23;20415;-81
2021/10/02 10:42:53;;;;;;;3.40;3.10;;;31.60;42.70;;;;;;6134287;23;20439;-83
2021/10/02 10:45:20;;;;;;;4.07;3.67;;;32.30;42.90;;;;;;6132562;23;20427;-83
2021/10/02 10:47:47;;;;;;;3.40;3.10;;;33.10;42.90;;;;;;6137118;23;20427;-81
2021/10/02 10:50:14;;;;;;;4.73;4.33;;;32.80;41.20;;;;;;6145475;23;20436;-81
2021/10/02 10:52:43;;;;;;;4.10;3.80;;;30.40;44.40;;;;;;6146780;23;20399;-83
2021/10/02 10:55:16;;;;;;;3.73;3.40;;;30.50;45.70;;;;;;6134612;23;20408;-83
2021/10/02 10:57:47;;;;;;;4.00;3.70;;;30.90;44.40;;;;;;6131750;23;20439;-82
2021/10/02 11:00:19;;;;;;;3.80;3.50;;;31.70;44.00;;;;;;6134213;23;20411;-81
2021/10/02 11:02:52;;;;;;;3.80;3.50;;;31.40;44.40;;;;;;6128243;23;20392;-85
2021/10/02 11:05:47;;;;;;;4.20;3.50;;;31.70;43.80;;;;;;6126503;23;20458;-84
2021/10/02 11:08:16;;;;;;;6.13;3.87;;;32.50;43.40;;;;;;6132902;23;20424;-85
2021/10/02 11:10:49;;;;;;;3.93;3.63;;;33.40;42.10;;;;;;6126731;23;20439;-84
2021/10/02 11:13:19;;;;;;;4.17;3.77;;;32.50;41.60;;;;;;6127849;23;20403;-84
2021/10/02 11:15:47;;;;;;;4.73;4.33;;;30.60;43.00;;;;;;6131060;23;20396;-82
2021/10/02 11:18:43;;;;;;;3.67;3.33;;;30.50;44.80;;;;;;6131201;23;20435;-82
2021/10/02 11:21:11;;;;;;;4.10;3.70;;;31.00;43.50;;;;;;6140654;23;20407;-85
2021/10/02 11:24:14;;;;;;;4.97;4.43;;;31.40;44.10;;;;;;6133870;23;20925;-85
2021/10/02 11:26:44;;;;;;;3.97;3.67;;;31.90;43.60;;;;;;6141867;23;20447;-84
2021/10/02 11:29:35;;;;;;;5.10;3.67;;;32.50;42.60;;;;;;6141168;23;20478;-85
2021/10/02 11:32:25;;;;;;;4.73;4.07;;;32.60;42.30;;;;;;6139056;23;20428;-84
2021/10/02 11:35:12;;;;;;;4.07;3.73;;;31.90;43.30;;;;;;6149436;23;20396;-87
2021/10/02 11:37:44;;;;;;;4.43;3.10;;;32.00;43.30;;;;;;6151594;23;20423;-86
2021/10/02 11:40:51;;;;;;;3.87;3.47;;;32.40;42.90;;;;;;6148357;23;20412;-83
2021/10/02 11:43:23;;;;;;;4.53;3.97;;;31.90;44.00;;;;;;6140813;23;20411;-87
2021/10/02 11:46:09;;;;;;;5.87;4.13;;;31.70;42.90;;;;;;6132405;23;20411;-87
2021/10/02 11:48:47;;;;;;;3.93;3.63;;;31.70;43.90;;;;;;6130720;23;20435;-87
2021/10/02 11:51:17;;;;;;;3.63;3.33;;;32.20;43.00;;;;;;6130981;23;20423;-86
2021/10/02 11:53:45;;;;;;;4.50;3.67;;;33.30;42.90;;;;;;6105255;23;20848;-89
2021/10/02 11:56:13;;;;;;;4.00;3.60;;;33.20;42.00;;;;;;6137122;23;20487;-89
2021/10/02 11:58:42;;;;;;;4.97;3.77;;;32.50;41.20;;;;;;6136172;23;20412;-90
2021/10/02 12:01:21;;;;;;;3.70;3.40;;;30.80;43.60;;;;;;6139822;23;20404;-89
2021/10/02 12:03:49;;;;;;;5.07;4.57;;;31.10;44.30;;;;;;6129511;23;20423;-90
2021/10/02 12:06:20;;;;;;;6.60;3.90;;;32.60;43.50;;;;;;6127873;23;20410;-91
2021/10/02 12:08:50;;;;;;;4.43;4.03;;;33.50;41.80;;;;;;6127826;23;20410;-90
2021/10/02 12:11:17;;;;;;;4.43;4.00;;;33.50;40.20;;;;;;6130293;23;20444;-89
2021/10/02 12:13:46;;;;;;;3.93;3.53;;;33.20;41.40;;;;;;6127314;23;20422;-90
2021/10/02 12:16:16;;;;;;;4.30;3.90;;;33.20;41.30;;;;;;6127081;23;20408;-91
2021/10/02 12:18:45;;;;;;;5.27;3.30;;;31.60;42.60;;;;;;6139414;23;20856;-90
2021/10/02 12:21:13;;;;;;;4.33;3.93;;;32.40;43.00;;;;;;6127314;23;20420;-90
2021/10/02 12:23:51;;;;;;;5.47;3.80;;;32.90;41.60;;;;;;6126810;23;20427;-90
2021/10/02 12:26:18;;;;;;;3.83;3.53;;;31.90;42.20;;;;;;6127564;23;20400;-89
2021/10/02 12:28:45;;;;;;;3.90;3.50;;;31.00;43.40;;;;;;6128832;23;20422;-90
2021/10/02 12:31:11;;;;;;;3.23;2.90;;;31.90;43.60;;;;;;6132031;23;20435;-90
2021/10/02 12:33:39;;;;;;;4.10;3.80;;;32.60;41.10;;;;;;6129838;23;20427;-90
2021/10/02 12:36:09;;;;;;;3.53;3.23;;;32.10;42.20;;;;;;6128293;23;20407;-90
2021/10/02 12:38:43;;;;;;;4.77;3.47;;;31.70;42.90;;;;;;6127096;23;20415;-90
2021/10/02 12:41:10;;;;;;;4.73;4.33;;;31.80;43.70;;;;;;6131081;23;20384;-90
2021/10/02 12:43:37;;;;;;;3.33;3.03;;;30.30;44.00;;;;;;6150306;23;20504;-89
2021/10/02 12:46:19;;;;;;;4.03;3.73;;;30.10;45.80;;;;;;6128477;23;20416;-90
2021/10/02 12:48:48;;;;;;;4.90;3.57;;;30.00;46.40;;;;;;6126894;23;20454;-90
2021/10/02 12:51:14;;;;;;;8.20;4.23;;;29.20;46.20;;;;;;6127505;23;20530;-89
2021/10/02 12:53:44;;;;;;;3.67;3.37;;;27.70;48.20;;;;;;6128523;23;20861;-90
2021/10/02 12:56:18;;;;;;;3.87;3.57;;;27.20;50.00;;;;;;6126220;23;20739;-89
2021/10/02 12:58:46;;;;;;;3.30;2.87;;;27.40;50.10;;;;;;6126359;23;20396;-89
2021/10/02 13:01:13;;;;;;;3.70;3.40;;;27.50;49.20;;;;;;6141187;23;20412;-88
2021/10/02 13:03:40;;;;;;;3.10;2.90;;;27.60;49.50;;;;;;6134935;23;20417;-89
2021/10/02 13:06:09;;;;;;;4.10;3.70;;;27.50;49.50;;;;;;6130437;23;20437;-88
2021/10/02 13:08:36;;;;;;;6.00;3.83;;;27.70;50.20;;;;;;6132007;23;20417;-88
2021/10/02 13:11:03;;;;;;;3.53;3.23;;;27.30;49.70;;;;;;6131195;23;20447;-87
2021/10/02 13:13:30;;;;;;;4.47;3.70;;;27.00;50.40;;;;;;6129295;23;20432;-89
2021/10/02 13:15:59;;;;;;;3.87;3.27;;;27.20;51.60;;;;;;6132255;23;20930;-89
2021/10/02 13:18:28;;;;;;;9.30;4.73;;;26.60;51.50;;;;;;6133014;23;20407;-88
2021/10/02 13:21:03;;;;;;;4.80;4.07;;;26.90;52.90;;;;;;6127736;23;20880;-89
2021/10/02 13:24:06;;;;;;;7.63;3.87;;;27.20;51.40;;;;;;6125910;23;20438;-89
2021/10/02 13:26:52;;;;;;;4.90;3.73;;;27.50;51.10;;;;;;6091515;23;20407;-90
2021/10/02 13:29:56;;;;;;;5.20;4.40;;;27.70;51.10;;;;;;6126916;23;20395;-90
2021/10/02 13:32:25;;;;;;;3.30;3.10;;;27.70;50.00;;;;;;6132586;23;20456;-90
2021/10/02 13:34:52;;;;;;;4.13;3.80;;;27.60;49.70;;;;;;6130448;23;20404;-90
2021/10/02 13:37:30;;;;;;;3.97;3.57;;;27.80;49.00;;;;;;6134193;23;20800;-89
2021/10/02 13:48:55;;;;;;;9.67;3.60;;;27.10;50.30;;;;;;6132993;23;20421;-89
2021/10/02 13:51:22;;;;;;;3.47;3.17;;;26.90;51.00;;;;;;6128952;23;20435;-88
2021/10/02 13:53:49;;;;;;;5.67;4.00;;;26.40;51.00;;;;;;6129687;23;20458;-88
2021/10/02 13:56:25;;;;;;;3.50;3.20;;;26.00;51.70;;;;;;6130798;23;20418;-89
2021/10/02 13:58:52;;;;;;;3.77;3.07;;;25.70;52.30;;;;;;6130290;23;20414;-88